North Canton, OH (44720)

12:24 AM EDT on August 31, 2015 (GMT -0400)
Lake Cable, Canton, OH | | Change Station
CLOSE
Current Station
Personal Weather Station
Location: Canton, OH
Elevation: 1148 ft
Nearby Weather Stations

Elev 1148 ft 40.87 °N, 81.45 °W | Updated 2 minutes ago

Overcast
Overcast
69.1 °F
Feels Like 69.1 °F
N
0.0
Wind Variable Wind from NW

Today
High -- | Low -- °F
--% Chance of Precip.
Yesterday
High -- | Low -- °F
Precip. -- in
6:51 AM 8:00 PM
Full, 97% visible
Pressure 30.08 in
Visibility 10.0 miles
Clouds Overcast 11000 ft
Dew Point 65 °F
Humidity 87%
Rainfall 0.00 in
Snow Depth Not available.
UV 0 out of 12
Pollen 9.40 out of 12
Air Quality Not available.
Flu Activity Not available.
METAR KCAK 310351Z 23005KT 10SM OVC110 22/18 A3010 RMK AO2 RAB34E51 TSE32 SLP185 P0000 T02220183
Pressure 30.08 in
Visibility 10.0 miles
Clouds Overcast 11000 ft
Dew Point 65 °F
Humidity 87%
Rainfall 0.00 in
Snow Depth Not available.
UV 0 out of 12
Pollen 9.40 out of 12
Air Quality Not available.
Flu Activity Not available.
METAR KCAK 310351Z 23005KT 10SM OVC110 22/18 A3010 RMK AO2 RAB34E51 TSE32 SLP185 P0000 T02220183

10-Day Weather Forecast

×

Almanac

Astronomy

Aug. 31, 2015 Rise Set
Actual Time
Civil Twilight
Nautical Twilight
Astronomical Twilight
Moon
Length of Visible Light
Length of Day
Tomorrow will be .
, % of the Moon is Illuminated

Today's Extremes

State Highs State Lows

Community

WunderPhotos

Upload Photos

1,851,198 photos uploaded!

WunderBlogs® & News

Nearby

Air Quality

  Air Quality AQ Index Pollutant
Not available.

Snow Depth

Station Depth Elevation

Earthquake Activity

City Distance Mag. Time & Date
Minimum magnitude displayed is 2.5.

Coastal Water Temperatures

Place Temperature

Stations

Nearby Weather Stations

Station Location Temp. Windchill Dew Point Humidity Wind Precip. Elev Updated Type